sensor_id;sensor_type;location;lat;lon;timestamp;temperature;humidity
51007;DHT22;37034;47.886;-3.904;2023-12-20T00:00:47;12.70;99.90
51007;DHT22;37034;47.886;-3.904;2023-12-20T00:03:13;12.70;99.90
51007;DHT22;37034;47.886;-3.904;2023-12-20T00:05:38;12.60;99.90
51007;DHT22;37034;47.886;-3.904;2023-12-20T00:08:06;12.60;99.90
51007;DHT22;37034;47.886;-3.904;2023-12-20T00:10:32;12.50;99.90
51007;DHT22;37034;47.886;-3.904;2023-12-20T00:12:57;12.50;99.90
51007;DHT22;37034;47.886;-3.904;2023-12-20T00:15:23;12.50;99.90
51007;DHT22;37034;47.886;-3.904;2023-12-20T00:17:48;12.40;99.90
51007;DHT22;37034;47.886;-3.904;2023-12-20T00:20:14;12.40;99.90
51007;DHT22;37034;47.886;-3.904;2023-12-20T00:22:40;12.30;99.90
51007;DHT22;37034;47.886;-3.904;2023-12-20T00:25:07;12.30;99.90
51007;DHT22;37034;47.886;-3.904;2023-12-20T00:27:32;12.20;99.90
51007;DHT22;37034;47.886;-3.904;2023-12-20T00:29:58;12.20;99.90
51007;DHT22;37034;47.886;-3.904;2023-12-20T00:32:23;12.10;99.90
51007;DHT22;37034;47.886;-3.904;2023-12-20T00:34:49;12.10;99.90
51007;DHT22;37034;47.886;-3.904;2023-12-20T00:37:15;12.00;99.90
51007;DHT22;37034;47.886;-3.904;2023-12-20T00:39:41;12.00;99.90
51007;DHT22;37034;47.886;-3.904;2023-12-20T00:42:07;12.00;99.90
51007;DHT22;37034;47.886;-3.904;2023-12-20T00:44:33;11.90;99.90
51007;DHT22;37034;47.886;-3.904;2023-12-20T00:46:59;11.90;99.90
51007;DHT22;37034;47.886;-3.904;2023-12-20T00:49:24;11.90;99.90
51007;DHT22;37034;47.886;-3.904;2023-12-20T00:51:50;11.80;99.90
51007;DHT22;37034;47.886;-3.904;2023-12-20T00:54:18;11.70;99.90
51007;DHT22;37034;47.886;-3.904;2023-12-20T00:56:43;11.60;99.90
51007;DHT22;37034;47.886;-3.904;2023-12-20T00:59:09;11.60;99.90
51007;DHT22;37034;47.886;-3.904;2023-12-20T01:01:35;11.60;99.90
51007;DHT22;37034;47.886;-3.904;2023-12-20T01:04:00;11.60;99.90
51007;DHT22;37034;47.886;-3.904;2023-12-20T01:06:26;11.60;99.90
51007;DHT22;37034;47.886;-3.904;2023-12-20T01:08:52;11.60;99.90
51007;DHT22;37034;47.886;-3.904;2023-12-20T01:11:17;11.60;99.90
51007;DHT22;37034;47.886;-3.904;2023-12-20T01:13:43;11.70;99.90
51007;DHT22;37034;47.886;-3.904;2023-12-20T01:16:11;11.60;99.90
51007;DHT22;37034;47.886;-3.904;2023-12-20T01:18:37;11.70;99.90
51007;DHT22;37034;47.886;-3.904;2023-12-20T01:21:04;11.70;99.90
51007;DHT22;37034;47.886;-3.904;2023-12-20T01:23:30;11.80;99.90
51007;DHT22;37034;47.886;-3.904;2023-12-20T01:25:56;11.80;99.90
51007;DHT22;37034;47.886;-3.904;2023-12-20T01:28:22;11.80;99.90
51007;DHT22;37034;47.886;-3.904;2023-12-20T01:30:47;11.80;99.90
51007;DHT22;37034;47.886;-3.904;2023-12-20T01:33:13;11.70;99.90
51007;DHT22;37034;47.886;-3.904;2023-12-20T01:35:39;11.70;99.90
51007;DHT22;37034;47.886;-3.904;2023-12-20T01:38:04;11.70;99.90
51007;DHT22;37034;47.886;-3.904;2023-12-20T01:40:30;11.90;99.90
51007;DHT22;37034;47.886;-3.904;2023-12-20T01:43:07;11.80;99.90
51007;DHT22;37034;47.886;-3.904;2023-12-20T01:45:34;11.70;99.90
51007;DHT22;37034;47.886;-3.904;2023-12-20T01:47:59;11.70;99.90
51007;DHT22;37034;47.886;-3.904;2023-12-20T01:50:27;11.70;99.90
51007;DHT22;37034;47.886;-3.904;2023-12-20T01:52:58;11.60;99.90
51007;DHT22;37034;47.886;-3.904;2023-12-20T01:55:27;11.60;99.90
51007;DHT22;37034;47.886;-3.904;2023-12-20T01:57:53;11.60;99.90
51007;DHT22;37034;47.886;-3.904;2023-12-20T02:00:19;11.50;99.90
51007;DHT22;37034;47.886;-3.904;2023-12-20T02:02:50;11.60;99.90
51007;DHT22;37034;47.886;-3.904;2023-12-20T02:05:16;11.50;99.90
51007;DHT22;37034;47.886;-3.904;2023-12-20T02:07:42;11.40;99.90
51007;DHT22;37034;47.886;-3.904;2023-12-20T02:10:08;11.40;99.90
51007;DHT22;37034;47.886;-3.904;2023-12-20T02:12:34;11.40;99.90
51007;DHT22;37034;47.886;-3.904;2023-12-20T02:14:59;11.40;99.90
51007;DHT22;37034;47.886;-3.904;2023-12-20T02:17:25;11.30;99.90
51007;DHT22;37034;47.886;-3.904;2023-12-20T02:19:51;11.30;99.90
51007;DHT22;37034;47.886;-3.904;2023-12-20T02:22:17;11.50;99.90
51007;DHT22;37034;47.886;-3.904;2023-12-20T02:24:42;11.20;99.90
51007;DHT22;37034;47.886;-3.904;2023-12-20T02:27:08;11.10;99.90
51007;DHT22;37034;47.886;-3.904;2023-12-20T02:29:35;11.00;99.90
51007;DHT22;37034;47.886;-3.904;2023-12-20T02:32:01;11.00;99.90
51007;DHT22;37034;47.886;-3.904;2023-12-20T02:34:26;11.00;99.90
51007;DHT22;37034;47.886;-3.904;2023-12-20T02:36:52;10.90;99.90
51007;DHT22;37034;47.886;-3.904;2023-12-20T02:39:18;10.90;99.90
51007;DHT22;37034;47.886;-3.904;2023-12-20T02:41:44;10.90;99.90
51007;DHT22;37034;47.886;-3.904;2023-12-20T02:44:10;10.80;99.90
51007;DHT22;37034;47.886;-3.904;2023-12-20T02:46:35;10.80;99.90
51007;DHT22;37034;47.886;-3.904;2023-12-20T02:49:01;10.70;99.90
51007;DHT22;37034;47.886;-3.904;2023-12-20T02:51:27;10.80;99.90
51007;DHT22;37034;47.886;-3.904;2023-12-20T02:53:52;10.70;99.90
51007;DHT22;37034;47.886;-3.904;2023-12-20T02:56:18;10.70;99.90
51007;DHT22;37034;47.886;-3.904;2023-12-20T02:58:44;10.80;99.90
51007;DHT22;37034;47.886;-3.904;2023-12-20T03:01:09;10.70;99.90
51007;DHT22;37034;47.886;-3.904;2023-12-20T03:03:35;10.70;99.90
51007;DHT22;37034;47.886;-3.904;2023-12-20T03:06:01;10.80;99.90
51007;DHT22;37034;47.886;-3.904;2023-12-20T03:08:26;10.80;99.90
51007;DHT22;37034;47.886;-3.904;2023-12-20T03:10:52;10.90;99.90
51007;DHT22;37034;47.886;-3.904;2023-12-20T03:13:19;11.00;99.90
51007;DHT22;37034;47.886;-3.904;2023-12-20T03:15:45;11.00;99.90
51007;DHT22;37034;47.886;-3.904;2023-12-20T03:18:11;11.10;99.90
51007;DHT22;37034;47.886;-3.904;2023-12-20T03:20:36;11.20;99.90
51007;DHT22;37034;47.886;-3.904;2023-12-20T03:23:03;11.30;99.90
51007;DHT22;37034;47.886;-3.904;2023-12-20T03:25:29;11.30;99.90
51007;DHT22;37034;47.886;-3.904;2023-12-20T03:27:55;11.20;99.90
51007;DHT22;37034;47.886;-3.904;2023-12-20T03:30:20;11.30;99.90
51007;DHT22;37034;47.886;-3.904;2023-12-20T03:32:47;11.20;99.90
51007;DHT22;37034;47.886;-3.904;2023-12-20T03:35:12;11.20;99.90
51007;DHT22;37034;47.886;-3.904;2023-12-20T03:37:38;11.20;99.90
51007;DHT22;37034;47.886;-3.904;2023-12-20T03:40:04;11.20;99.90
51007;DHT22;37034;47.886;-3.904;2023-12-20T03:42:30;11.20;99.90
51007;DHT22;37034;47.886;-3.904;2023-12-20T03:44:56;11.20;99.90
51007;DHT22;37034;47.886;-3.904;2023-12-20T03:47:22;11.10;99.90
51007;DHT22;37034;47.886;-3.904;2023-12-20T03:49:47;11.10;99.90
51007;DHT22;37034;47.886;-3.904;2023-12-20T03:52:13;11.10;99.90
51007;DHT22;37034;47.886;-3.904;2023-12-20T03:54:39;11.10;99.90
51007;DHT22;37034;47.886;-3.904;2023-12-20T03:57:05;11.00;99.90
51007;DHT22;37034;47.886;-3.904;2023-12-20T03:59:36;11.00;99.90
51007;DHT22;37034;47.886;-3.904;2023-12-20T04:02:02;11.00;99.90
51007;DHT22;37034;47.886;-3.904;2023-12-20T04:04:28;10.90;99.90
51007;DHT22;37034;47.886;-3.904;2023-12-20T04:06:54;10.90;99.90
51007;DHT22;37034;47.886;-3.904;2023-12-20T04:09:19;10.80;99.90
51007;DHT22;37034;47.886;-3.904;2023-12-20T04:11:45;10.80;99.90
51007;DHT22;37034;47.886;-3.904;2023-12-20T04:14:11;10.80;99.90
51007;DHT22;37034;47.886;-3.904;2023-12-20T04:16:36;10.70;99.90
51007;DHT22;37034;47.886;-3.904;2023-12-20T04:19:02;10.70;99.90
51007;DHT22;37034;47.886;-3.904;2023-12-20T04:21:28;10.70;99.90
51007;DHT22;37034;47.886;-3.904;2023-12-20T04:23:53;10.70;99.90
51007;DHT22;37034;47.886;-3.904;2023-12-20T04:26:19;10.80;99.90
51007;DHT22;37034;47.886;-3.904;2023-12-20T04:28:45;10.70;99.90
51007;DHT22;37034;47.886;-3.904;2023-12-20T04:31:10;10.70;99.90
51007;DHT22;37034;47.886;-3.904;2023-12-20T04:33:36;10.80;99.90
51007;DHT22;37034;47.886;-3.904;2023-12-20T04:36:02;10.80;99.90
51007;DHT22;37034;47.886;-3.904;2023-12-20T04:38:27;10.80;99.90
51007;DHT22;37034;47.886;-3.904;2023-12-20T04:40:53;10.80;99.90
51007;DHT22;37034;47.886;-3.904;2023-12-20T04:43:19;10.90;99.90
51007;DHT22;37034;47.886;-3.904;2023-12-20T04:45:44;10.90;99.90
51007;DHT22;37034;47.886;-3.904;2023-12-20T04:48:10;10.90;99.90
51007;DHT22;37034;47.886;-3.904;2023-12-20T04:50:36;10.90;99.90
51007;DHT22;37034;47.886;-3.904;2023-12-20T04:53:01;11.00;99.90
51007;DHT22;37034;47.886;-3.904;2023-12-20T04:55:27;11.00;99.90
51007;DHT22;37034;47.886;-3.904;2023-12-20T04:57:52;11.00;99.90
51007;DHT22;37034;47.886;-3.904;2023-12-20T05:00:18;11.00;99.90
51007;DHT22;37034;47.886;-3.904;2023-12-20T05:02:44;11.00;99.90
51007;DHT22;37034;47.886;-3.904;2023-12-20T05:05:09;11.00;99.90
51007;DHT22;37034;47.886;-3.904;2023-12-20T05:07:35;11.00;99.90
51007;DHT22;37034;47.886;-3.904;2023-12-20T05:10:01;11.00;99.90
51007;DHT22;37034;47.886;-3.904;2023-12-20T05:12:30;10.90;99.90
51007;DHT22;37034;47.886;-3.904;2023-12-20T05:14:55;10.90;99.90
51007;DHT22;37034;47.886;-3.904;2023-12-20T05:17:21;10.90;99.90
51007;DHT22;37034;47.886;-3.904;2023-12-20T05:19:46;11.00;99.90
51007;DHT22;37034;47.886;-3.904;2023-12-20T05:22:12;11.00;99.90
51007;DHT22;37034;47.886;-3.904;2023-12-20T05:24:38;11.10;99.90
51007;DHT22;37034;47.886;-3.904;2023-12-20T05:27:04;11.10;99.90
51007;DHT22;37034;47.886;-3.904;2023-12-20T05:29:29;11.10;99.90
51007;DHT22;37034;47.886;-3.904;2023-12-20T05:31:55;11.20;99.90
51007;DHT22;37034;47.886;-3.904;2023-12-20T05:34:21;11.20;99.90
51007;DHT22;37034;47.886;-3.904;2023-12-20T05:36:46;11.20;99.90
51007;DHT22;37034;47.886;-3.904;2023-12-20T05:39:12;11.30;99.90
51007;DHT22;37034;47.886;-3.904;2023-12-20T05:41:37;11.20;99.90
51007;DHT22;37034;47.886;-3.904;2023-12-20T05:44:03;11.10;99.90
51007;DHT22;37034;47.886;-3.904;2023-12-20T05:46:29;11.10;99.90
51007;DHT22;37034;47.886;-3.904;2023-12-20T05:48:54;11.00;99.90
51007;DHT22;37034;47.886;-3.904;2023-12-20T05:51:20;11.00;99.90
51007;DHT22;37034;47.886;-3.904;2023-12-20T05:53:46;11.00;99.90
51007;DHT22;37034;47.886;-3.904;2023-12-20T05:56:11;11.10;99.90
51007;DHT22;37034;47.886;-3.904;2023-12-20T05:58:38;11.10;99.90
51007;DHT22;37034;47.886;-3.904;2023-12-20T06:01:05;11.20;99.90
51007;DHT22;37034;47.886;-3.904;2023-12-20T06:03:31;11.20;99.90
51007;DHT22;37034;47.886;-3.904;2023-12-20T06:05:57;11.20;99.90
51007;DHT22;37034;47.886;-3.904;2023-12-20T06:08:22;11.10;99.90
51007;DHT22;37034;47.886;-3.904;2023-12-20T06:10:48;11.20;99.90
51007;DHT22;37034;47.886;-3.904;2023-12-20T06:13:14;11.30;99.90
51007;DHT22;37034;47.886;-3.904;2023-12-20T06:15:40;11.30;99.90
51007;DHT22;37034;47.886;-3.904;2023-12-20T06:18:06;11.40;99.90
51007;DHT22;37034;47.886;-3.904;2023-12-20T06:20:32;11.40;99.90
51007;DHT22;37034;47.886;-3.904;2023-12-20T06:22:58;11.50;99.90
51007;DHT22;37034;47.886;-3.904;2023-12-20T06:25:23;11.50;99.90
51007;DHT22;37034;47.886;-3.904;2023-12-20T06:27:49;11.50;99.90
51007;DHT22;37034;47.886;-3.904;2023-12-20T06:30:15;11.50;99.90
51007;DHT22;37034;47.886;-3.904;2023-12-20T06:32:41;11.50;99.90
51007;DHT22;37034;47.886;-3.904;2023-12-20T06:35:10;11.50;99.90
51007;DHT22;37034;47.886;-3.904;2023-12-20T06:37:36;11.50;99.90
51007;DHT22;37034;47.886;-3.904;2023-12-20T06:40:02;11.50;99.90
51007;DHT22;37034;47.886;-3.904;2023-12-20T06:42:27;11.40;99.90
51007;DHT22;37034;47.886;-3.904;2023-12-20T06:44:53;11.40;99.90
51007;DHT22;37034;47.886;-3.904;2023-12-20T06:47:19;11.40;99.90
51007;DHT22;37034;47.886;-3.904;2023-12-20T06:49:44;11.40;99.90
51007;DHT22;37034;47.886;-3.904;2023-12-20T06:52:10;11.40;99.90
51007;DHT22;37034;47.886;-3.904;2023-12-20T06:54:35;11.30;99.90
51007;DHT22;37034;47.886;-3.904;2023-12-20T06:57:01;11.30;99.90
51007;DHT22;37034;47.886;-3.904;2023-12-20T06:59:28;11.30;99.90
51007;DHT22;37034;47.886;-3.904;2023-12-20T07:01:54;11.30;99.90
51007;DHT22;37034;47.886;-3.904;2023-12-20T07:04:20;11.30;99.90
51007;DHT22;37034;47.886;-3.904;2023-12-20T07:06:48;11.40;99.90
51007;DHT22;37034;47.886;-3.904;2023-12-20T07:09:15;11.40;99.90
51007;DHT22;37034;47.886;-3.904;2023-12-20T07:11:41;11.40;99.90
51007;DHT22;37034;47.886;-3.904;2023-12-20T07:14:07;11.50;99.90
51007;DHT22;37034;47.886;-3.904;2023-12-20T07:16:32;11.50;99.90
51007;DHT22;37034;47.886;-3.904;2023-12-20T07:18:58;11.50;99.90
51007;DHT22;37034;47.886;-3.904;2023-12-20T07:21:24;11.50;99.90
51007;DHT22;37034;47.886;-3.904;2023-12-20T07:23:49;11.50;99.90
51007;DHT22;37034;47.886;-3.904;2023-12-20T07:26:15;11.50;99.90
51007;DHT22;37034;47.886;-3.904;2023-12-20T07:28:41;11.50;99.90
51007;DHT22;37034;47.886;-3.904;2023-12-20T07:31:06;11.50;99.90
51007;DHT22;37034;47.886;-3.904;2023-12-20T07:33:32;11.40;99.90
51007;DHT22;37034;47.886;-3.904;2023-12-20T07:35:59;11.40;99.90
51007;DHT22;37034;47.886;-3.904;2023-12-20T07:38:25;11.40;99.90
51007;DHT22;37034;47.886;-3.904;2023-12-20T07:40:50;11.40;99.90
51007;DHT22;37034;47.886;-3.904;2023-12-20T07:43:16;11.40;99.90
51007;DHT22;37034;47.886;-3.904;2023-12-20T07:45:42;11.30;99.90
51007;DHT22;37034;47.886;-3.904;2023-12-20T07:48:07;11.30;99.90
51007;DHT22;37034;47.886;-3.904;2023-12-20T07:50:34;11.30;99.90
51007;DHT22;37034;47.886;-3.904;2023-12-20T07:52:59;11.30;99.90
51007;DHT22;37034;47.886;-3.904;2023-12-20T07:55:26;11.30;99.90
51007;DHT22;37034;47.886;-3.904;2023-12-20T07:57:52;11.30;99.90
51007;DHT22;37034;47.886;-3.904;2023-12-20T08:00:18;11.30;99.90
51007;DHT22;37034;47.886;-3.904;2023-12-20T08:02:43;11.20;99.90
51007;DHT22;37034;47.886;-3.904;2023-12-20T08:05:09;11.20;99.90
51007;DHT22;37034;47.886;-3.904;2023-12-20T08:07:35;11.20;99.90
51007;DHT22;37034;47.886;-3.904;2023-12-20T08:10:00;11.20;99.90
51007;DHT22;37034;47.886;-3.904;2023-12-20T08:12:26;11.10;99.90
51007;DHT22;37034;47.886;-3.904;2023-12-20T08:14:53;11.20;99.90
51007;DHT22;37034;47.886;-3.904;2023-12-20T08:17:19;11.10;99.90
51007;DHT22;37034;47.886;-3.904;2023-12-20T08:19:45;11.10;99.90
51007;DHT22;37034;47.886;-3.904;2023-12-20T08:22:11;11.10;99.90
51007;DHT22;37034;47.886;-3.904;2023-12-20T08:24:37;11.10;99.90
51007;DHT22;37034;47.886;-3.904;2023-12-20T08:27:04;11.10;99.90
51007;DHT22;37034;47.886;-3.904;2023-12-20T08:29:29;11.10;99.90
51007;DHT22;37034;47.886;-3.904;2023-12-20T08:31:55;11.10;99.90
51007;DHT22;37034;47.886;-3.904;2023-12-20T08:34:21;11.10;99.90
51007;DHT22;37034;47.886;-3.904;2023-12-20T08:36:47;11.20;99.90
51007;DHT22;37034;47.886;-3.904;2023-12-20T08:39:12;11.20;99.90
51007;DHT22;37034;47.886;-3.904;2023-12-20T08:41:38;11.30;99.90
51007;DHT22;37034;47.886;-3.904;2023-12-20T08:44:04;11.40;99.90
51007;DHT22;37034;47.886;-3.904;2023-12-20T08:46:29;11.40;99.90
51007;DHT22;37034;47.886;-3.904;2023-12-20T08:48:55;11.50;99.90
51007;DHT22;37034;47.886;-3.904;2023-12-20T08:51:21;11.50;99.90
51007;DHT22;37034;47.886;-3.904;2023-12-20T08:53:48;11.70;99.90
51007;DHT22;37034;47.886;-3.904;2023-12-20T08:56:15;11.80;99.90
51007;DHT22;37034;47.886;-3.904;2023-12-20T08:58:40;11.80;99.90
51007;DHT22;37034;47.886;-3.904;2023-12-20T09:01:06;11.90;99.90
51007;DHT22;37034;47.886;-3.904;2023-12-20T09:03:33;11.90;99.90
51007;DHT22;37034;47.886;-3.904;2023-12-20T09:05:58;11.90;99.90
51007;DHT22;37034;47.886;-3.904;2023-12-20T09:08:24;11.90;99.90
51007;DHT22;37034;47.886;-3.904;2023-12-20T09:10:49;12.00;99.90
51007;DHT22;37034;47.886;-3.904;2023-12-20T09:13:15;12.10;99.90
51007;DHT22;37034;47.886;-3.904;2023-12-20T09:15:41;12.10;99.90
51007;DHT22;37034;47.886;-3.904;2023-12-20T09:18:07;12.20;99.90
51007;DHT22;37034;47.886;-3.904;2023-12-20T09:20:33;12.20;99.90
51007;DHT22;37034;47.886;-3.904;2023-12-20T09:22:59;12.30;99.90
51007;DHT22;37034;47.886;-3.904;2023-12-20T09:25:25;12.20;99.90
51007;DHT22;37034;47.886;-3.904;2023-12-20T09:27:52;12.20;99.90
51007;DHT22;37034;47.886;-3.904;2023-12-20T09:30:18;12.30;99.90
51007;DHT22;37034;47.886;-3.904;2023-12-20T09:32:44;12.40;99.90
51007;DHT22;37034;47.886;-3.904;2023-12-20T09:35:10;12.40;99.90
51007;DHT22;37034;47.886;-3.904;2023-12-20T09:37:36;12.50;99.90
51007;DHT22;37034;47.886;-3.904;2023-12-20T09:40:02;12.50;99.90
51007;DHT22;37034;47.886;-3.904;2023-12-20T09:42:58;12.50;99.90
51007;DHT22;37034;47.886;-3.904;2023-12-20T09:45:24;12.60;99.90
51007;DHT22;37034;47.886;-3.904;2023-12-20T09:47:52;12.70;99.90
51007;DHT22;37034;47.886;-3.904;2023-12-20T09:50:19;12.80;99.90
51007;DHT22;37034;47.886;-3.904;2023-12-20T09:52:51;12.90;99.90
51007;DHT22;37034;47.886;-3.904;2023-12-20T09:55:20;13.00;99.90
51007;DHT22;37034;47.886;-3.904;2023-12-20T09:57:46;13.00;99.90
51007;DHT22;37034;47.886;-3.904;2023-12-20T10:00:13;13.10;99.90
51007;DHT22;37034;47.886;-3.904;2023-12-20T10:02:45;13.10;99.90
51007;DHT22;37034;47.886;-3.904;2023-12-20T10:05:16;13.20;99.90
51007;DHT22;37034;47.886;-3.904;2023-12-20T10:07:45;13.20;99.90
51007;DHT22;37034;47.886;-3.904;2023-12-20T10:10:11;13.30;99.90
51007;DHT22;37034;47.886;-3.904;2023-12-20T10:12:38;13.30;99.90
51007;DHT22;37034;47.886;-3.904;2023-12-20T10:15:04;13.20;99.90
51007;DHT22;37034;47.886;-3.904;2023-12-20T10:17:30;13.20;99.90
51007;DHT22;37034;47.886;-3.904;2023-12-20T10:19:57;13.20;99.90
51007;DHT22;37034;47.886;-3.904;2023-12-20T10:22:23;13.20;99.90
51007;DHT22;37034;47.886;-3.904;2023-12-20T10:24:49;13.30;99.90
51007;DHT22;37034;47.886;-3.904;2023-12-20T10:27:18;13.50;99.90
51007;DHT22;37034;47.886;-3.904;2023-12-20T10:29:45;13.60;99.90
51007;DHT22;37034;47.886;-3.904;2023-12-20T10:32:25;13.70;99.90
51007;DHT22;37034;47.886;-3.904;2023-12-20T10:34:51;13.80;99.90
51007;DHT22;37034;47.886;-3.904;2023-12-20T10:37:17;13.90;99.90
51007;DHT22;37034;47.886;-3.904;2023-12-20T10:39:43;13.90;99.90
51007;DHT22;37034;47.886;-3.904;2023-12-20T10:42:12;14.00;99.90
51007;DHT22;37034;47.886;-3.904;2023-12-20T10:44:38;14.00;99.90
51007;DHT22;37034;47.886;-3.904;2023-12-20T10:47:05;14.00;99.90
51007;DHT22;37034;47.886;-3.904;2023-12-20T10:49:34;14.00;99.90
51007;DHT22;37034;47.886;-3.904;2023-12-20T10:52:02;13.90;99.90
51007;DHT22;37034;47.886;-3.904;2023-12-20T10:54:29;14.00;99.90
51007;DHT22;37034;47.886;-3.904;2023-12-20T10:56:57;14.00;99.90
51007;DHT22;37034;47.886;-3.904;2023-12-20T10:59:23;13.90;99.90
51007;DHT22;37034;47.886;-3.904;2023-12-20T11:01:50;13.90;99.90
51007;DHT22;37034;47.886;-3.904;2023-12-20T11:04:25;13.90;99.90
51007;DHT22;37034;47.886;-3.904;2023-12-20T11:07:49;13.80;99.90
51007;DHT22;37034;47.886;-3.904;2023-12-20T11:10:00;13.80;99.90
51007;DHT22;37034;47.886;-3.904;2023-12-20T11:12:53;13.90;99.90
51007;DHT22;37034;47.886;-3.904;2023-12-20T11:15:21;14.00;99.90
51007;DHT22;37034;47.886;-3.904;2023-12-20T11:17:55;14.10;99.90
51007;DHT22;37034;47.886;-3.904;2023-12-20T11:20:23;14.20;99.90
51007;DHT22;37034;47.886;-3.904;2023-12-20T11:22:55;14.20;99.90
51007;DHT22;37034;47.886;-3.904;2023-12-20T11:25:21;14.10;99.90
51007;DHT22;37034;47.886;-3.904;2023-12-20T11:28:07;14.10;99.90
51007;DHT22;37034;47.886;-3.904;2023-12-20T11:30:54;13.90;99.90
51007;DHT22;37034;47.886;-3.904;2023-12-20T11:33:31;13.70;99.90
51007;DHT22;37034;47.886;-3.904;2023-12-20T11:35:57;13.60;99.90
51007;DHT22;37034;47.886;-3.904;2023-12-20T11:38:25;13.60;99.90
51007;DHT22;37034;47.886;-3.904;2023-12-20T11:40:53;13.50;99.90
51007;DHT22;37034;47.886;-3.904;2023-12-20T11:43:32;13.50;99.90
51007;DHT22;37034;47.886;-3.904;2023-12-20T11:46:07;13.60;99.90
51007;DHT22;37034;47.886;-3.904;2023-12-20T11:48:39;13.40;99.90
51007;DHT22;37034;47.886;-3.904;2023-12-20T11:51:12;13.40;99.90
51007;DHT22;37034;47.886;-3.904;2023-12-20T11:53:39;13.40;99.90
51007;DHT22;37034;47.886;-3.904;2023-12-20T11:56:08;13.40;99.90
51007;DHT22;37034;47.886;-3.904;2023-12-20T11:58:34;13.50;99.90
51007;DHT22;37034;47.886;-3.904;2023-12-20T12:01:00;13.70;99.90
51007;DHT22;37034;47.886;-3.904;2023-12-20T12:03:28;13.80;99.90
51007;DHT22;37034;47.886;-3.904;2023-12-20T12:05:53;13.80;99.90
51007;DHT22;37034;47.886;-3.904;2023-12-20T12:08:19;14.00;99.90
51007;DHT22;37034;47.886;-3.904;2023-12-20T12:10:45;14.00;99.90
51007;DHT22;37034;47.886;-3.904;2023-12-20T12:13:11;14.00;99.90
51007;DHT22;37034;47.886;-3.904;2023-12-20T12:15:37;14.10;99.90
51007;DHT22;37034;47.886;-3.904;2023-12-20T12:18:03;14.10;99.90
51007;DHT22;37034;47.886;-3.904;2023-12-20T12:20:29;14.10;99.90
51007;DHT22;37034;47.886;-3.904;2023-12-20T12:23:03;14.20;99.90
51007;DHT22;37034;47.886;-3.904;2023-12-20T12:25:30;14.10;99.90
51007;DHT22;37034;47.886;-3.904;2023-12-20T12:27:57;14.10;99.90
51007;DHT22;37034;47.886;-3.904;2023-12-20T12:30:23;14.00;99.90
51007;DHT22;37034;47.886;-3.904;2023-12-20T12:32:52;14.10;99.90
51007;DHT22;37034;47.886;-3.904;2023-12-20T12:35:19;14.00;99.90
51007;DHT22;37034;47.886;-3.904;2023-12-20T12:37:45;13.90;99.90
51007;DHT22;37034;47.886;-3.904;2023-12-20T12:40:12;14.00;99.90
51007;DHT22;37034;47.886;-3.904;2023-12-20T12:42:39;14.00;99.90
51007;DHT22;37034;47.886;-3.904;2023-12-20T12:45:05;14.10;99.90
51007;DHT22;37034;47.886;-3.904;2023-12-20T12:47:31;14.20;99.90
51007;DHT22;37034;47.886;-3.904;2023-12-20T12:49:57;14.20;99.90
51007;DHT22;37034;47.886;-3.904;2023-12-20T12:52:22;14.20;99.90
51007;DHT22;37034;47.886;-3.904;2023-12-20T12:54:49;14.20;99.90
51007;DHT22;37034;47.886;-3.904;2023-12-20T12:57:15;14.20;99.90
51007;DHT22;37034;47.886;-3.904;2023-12-20T12:59:42;14.30;99.90
51007;DHT22;37034;47.886;-3.904;2023-12-20T13:02:09;14.30;99.90
51007;DHT22;37034;47.886;-3.904;2023-12-20T13:04:35;14.40;99.90
51007;DHT22;37034;47.886;-3.904;2023-12-20T13:07:02;14.30;99.90
51007;DHT22;37034;47.886;-3.904;2023-12-20T13:09:32;14.40;99.90
51007;DHT22;37034;47.886;-3.904;2023-12-20T13:11:58;14.50;99.90
51007;DHT22;37034;47.886;-3.904;2023-12-20T13:14:24;14.50;99.90
51007;DHT22;37034;47.886;-3.904;2023-12-20T13:16:50;14.30;99.90
51007;DHT22;37034;47.886;-3.904;2023-12-20T13:19:16;14.20;99.90
51007;DHT22;37034;47.886;-3.904;2023-12-20T13:21:41;14.00;99.90
51007;DHT22;37034;47.886;-3.904;2023-12-20T13:24:07;14.10;99.90
51007;DHT22;37034;47.886;-3.904;2023-12-20T13:26:33;14.20;99.90
51007;DHT22;37034;47.886;-3.904;2023-12-20T13:28:59;14.30;99.90
51007;DHT22;37034;47.886;-3.904;2023-12-20T13:31:24;14.30;99.90
51007;DHT22;37034;47.886;-3.904;2023-12-20T13:33:50;14.40;99.90
51007;DHT22;37034;47.886;-3.904;2023-12-20T13:36:17;14.40;99.90
51007;DHT22;37034;47.886;-3.904;2023-12-20T13:38:43;14.30;99.90
51007;DHT22;37034;47.886;-3.904;2023-12-20T13:41:09;14.40;99.90
51007;DHT22;37034;47.886;-3.904;2023-12-20T13:43:34;14.30;99.90
51007;DHT22;37034;47.886;-3.904;2023-12-20T13:46:00;14.40;99.90
51007;DHT22;37034;47.886;-3.904;2023-12-20T13:48:26;14.50;99.90
51007;DHT22;37034;47.886;-3.904;2023-12-20T13:50:52;14.60;99.90
51007;DHT22;37034;47.886;-3.904;2023-12-20T13:53:17;14.50;99.90
51007;DHT22;37034;47.886;-3.904;2023-12-20T13:55:44;14.60;99.90
51007;DHT22;37034;47.886;-3.904;2023-12-20T13:58:10;14.60;99.90
51007;DHT22;37034;47.886;-3.904;2023-12-20T14:00:36;14.50;99.90
51007;DHT22;37034;47.886;-3.904;2023-12-20T14:03:03;14.50;99.90
51007;DHT22;37034;47.886;-3.904;2023-12-20T14:05:29;14.60;99.90
51007;DHT22;37034;47.886;-3.904;2023-12-20T14:07:55;14.40;99.90
51007;DHT22;37034;47.886;-3.904;2023-12-20T14:10:23;14.20;99.90
51007;DHT22;37034;47.886;-3.904;2023-12-20T14:12:49;14.10;99.90
51007;DHT22;37034;47.886;-3.904;2023-12-20T14:15:14;14.10;99.90
51007;DHT22;37034;47.886;-3.904;2023-12-20T14:17:40;14.20;99.90
51007;DHT22;37034;47.886;-3.904;2023-12-20T14:20:10;14.20;99.90
51007;DHT22;37034;47.886;-3.904;2023-12-20T14:22:38;14.10;99.90
51007;DHT22;37034;47.886;-3.904;2023-12-20T14:25:04;14.10;99.90
51007;DHT22;37034;47.886;-3.904;2023-12-20T14:27:44;14.00;99.90
51007;DHT22;37034;47.886;-3.904;2023-12-20T14:30:14;14.00;99.90
51007;DHT22;37034;47.886;-3.904;2023-12-20T14:32:40;14.00;99.90
51007;DHT22;37034;47.886;-3.904;2023-12-20T14:35:06;14.00;99.90
51007;DHT22;37034;47.886;-3.904;2023-12-20T14:37:32;13.90;99.90
51007;DHT22;37034;47.886;-3.904;2023-12-20T14:39:57;13.90;99.90
51007;DHT22;37034;47.886;-3.904;2023-12-20T14:42:23;13.90;99.90
51007;DHT22;37034;47.886;-3.904;2023-12-20T14:44:49;13.90;99.90
51007;DHT22;37034;47.886;-3.904;2023-12-20T14:47:15;13.70;99.90
51007;DHT22;37034;47.886;-3.904;2023-12-20T14:49:41;13.70;99.90
51007;DHT22;37034;47.886;-3.904;2023-12-20T14:52:08;13.70;99.90
51007;DHT22;37034;47.886;-3.904;2023-12-20T14:54:36;13.90;99.90
51007;DHT22;37034;47.886;-3.904;2023-12-20T14:57:02;13.90;99.90
51007;DHT22;37034;47.886;-3.904;2023-12-20T14:59:28;13.80;99.90
51007;DHT22;37034;47.886;-3.904;2023-12-20T15:01:54;13.90;99.90
51007;DHT22;37034;47.886;-3.904;2023-12-20T15:04:20;13.70;99.90
51007;DHT22;37034;47.886;-3.904;2023-12-20T15:06:52;13.80;99.90
51007;DHT22;37034;47.886;-3.904;2023-12-20T15:09:18;13.90;99.90
51007;DHT22;37034;47.886;-3.904;2023-12-20T15:11:43;14.10;99.90